sensor_id;sensor_type;location;lat;lon;timestamp;temperature;humidity
38480;DHT22;62333;51.980;5.934;2024-03-08T00:00:51;8.20;73.60
38480;DHT22;62333;51.980;5.934;2024-03-08T00:03:17;8.20;73.60
38480;DHT22;62333;51.980;5.934;2024-03-08T00:05:42;8.20;73.50
38480;DHT22;62333;51.980;5.934;2024-03-08T00:08:08;8.20;73.40
38480;DHT22;62333;51.980;5.934;2024-03-08T00:10:35;8.20;73.30
38480;DHT22;62333;51.980;5.934;2024-03-08T00:13:01;8.20;73.20
38480;DHT22;62333;51.980;5.934;2024-03-08T00:15:29;8.20;73.10
38480;DHT22;62333;51.980;5.934;2024-03-08T00:17:57;8.20;72.90
38480;DHT22;62333;51.980;5.934;2024-03-08T00:20:23;8.20;72.90
38480;DHT22;62333;51.980;5.934;2024-03-08T00:22:49;8.10;72.90
38480;DHT22;62333;51.980;5.934;2024-03-08T00:25:14;8.10;72.80
38480;DHT22;62333;51.980;5.934;2024-03-08T00:27:41;8.10;72.90
38480;DHT22;62333;51.980;5.934;2024-03-08T00:30:07;8.10;72.90
38480;DHT22;62333;51.980;5.934;2024-03-08T00:32:33;8.00;72.80
38480;DHT22;62333;51.980;5.934;2024-03-08T00:34:59;8.00;72.60
38480;DHT22;62333;51.980;5.934;2024-03-08T00:37:25;7.90;72.60
38480;DHT22;62333;51.980;5.934;2024-03-08T00:39:51;7.90;72.70
38480;DHT22;62333;51.980;5.934;2024-03-08T00:42:17;7.90;72.80
38480;DHT22;62333;51.980;5.934;2024-03-08T00:44:43;7.80;72.60
38480;DHT22;62333;51.980;5.934;2024-03-08T00:47:09;7.80;72.60
38480;DHT22;62333;51.980;5.934;2024-03-08T00:49:35;7.80;72.70
38480;DHT22;62333;51.980;5.934;2024-03-08T00:52:02;7.70;72.60
38480;DHT22;62333;51.980;5.934;2024-03-08T00:54:28;7.80;72.70
38480;DHT22;62333;51.980;5.934;2024-03-08T00:56:53;7.80;72.40
38480;DHT22;62333;51.980;5.934;2024-03-08T00:59:19;7.80;72.30
38480;DHT22;62333;51.980;5.934;2024-03-08T01:01:45;7.70;72.10
38480;DHT22;62333;51.980;5.934;2024-03-08T01:04:11;7.70;72.30
38480;DHT22;62333;51.980;5.934;2024-03-08T01:06:37;7.70;72.20
38480;DHT22;62333;51.980;5.934;2024-03-08T01:09:02;7.70;72.00
38480;DHT22;62333;51.980;5.934;2024-03-08T01:11:28;7.60;72.00
38480;DHT22;62333;51.980;5.934;2024-03-08T01:13:54;7.60;72.00
38480;DHT22;62333;51.980;5.934;2024-03-08T01:16:20;7.70;71.80
38480;DHT22;62333;51.980;5.934;2024-03-08T01:18:47;7.60;71.80
38480;DHT22;62333;51.980;5.934;2024-03-08T01:21:13;7.60;71.70
38480;DHT22;62333;51.980;5.934;2024-03-08T01:23:38;7.50;71.60
38480;DHT22;62333;51.980;5.934;2024-03-08T01:26:04;7.50;71.70
38480;DHT22;62333;51.980;5.934;2024-03-08T01:28:30;7.50;71.80
38480;DHT22;62333;51.980;5.934;2024-03-08T01:30:56;7.50;71.60
38480;DHT22;62333;51.980;5.934;2024-03-08T01:33:23;7.60;71.60
38480;DHT22;62333;51.980;5.934;2024-03-08T01:35:51;7.70;71.50
38480;DHT22;62333;51.980;5.934;2024-03-08T01:38:17;7.70;71.60
38480;DHT22;62333;51.980;5.934;2024-03-08T01:40:42;7.70;71.40
38480;DHT22;62333;51.980;5.934;2024-03-08T01:43:28;7.80;71.30
38480;DHT22;62333;51.980;5.934;2024-03-08T01:45:58;7.80;71.00
38480;DHT22;62333;51.980;5.934;2024-03-08T01:48:28;7.80;71.10
38480;DHT22;62333;51.980;5.934;2024-03-08T01:50:58;7.70;71.00
38480;DHT22;62333;51.980;5.934;2024-03-08T01:53:26;7.70;70.80
38480;DHT22;62333;51.980;5.934;2024-03-08T01:55:57;7.70;70.80
38480;DHT22;62333;51.980;5.934;2024-03-08T01:58:23;7.60;70.70
38480;DHT22;62333;51.980;5.934;2024-03-08T02:00:49;7.60;70.60
38480;DHT22;62333;51.980;5.934;2024-03-08T02:03:16;7.60;70.50
38480;DHT22;62333;51.980;5.934;2024-03-08T02:05:42;7.60;70.50
38480;DHT22;62333;51.980;5.934;2024-03-08T02:08:09;7.60;70.60
38480;DHT22;62333;51.980;5.934;2024-03-08T02:10:40;7.50;70.10
38480;DHT22;62333;51.980;5.934;2024-03-08T02:13:07;7.50;69.90
38480;DHT22;62333;51.980;5.934;2024-03-08T02:15:53;7.40;69.90
38480;DHT22;62333;51.980;5.934;2024-03-08T02:18:19;7.40;69.70
38480;DHT22;62333;51.980;5.934;2024-03-08T02:23:18;7.40;69.90
38480;DHT22;62333;51.980;5.934;2024-03-08T02:25:45;7.40;70.00
38480;DHT22;62333;51.980;5.934;2024-03-08T02:28:11;7.40;69.90
38480;DHT22;62333;51.980;5.934;2024-03-08T02:30:37;7.40;69.50
38480;DHT22;62333;51.980;5.934;2024-03-08T02:33:07;7.30;69.50
38480;DHT22;62333;51.980;5.934;2024-03-08T02:35:35;7.30;69.60
38480;DHT22;62333;51.980;5.934;2024-03-08T02:38:04;7.30;69.80
38480;DHT22;62333;51.980;5.934;2024-03-08T02:40:30;7.20;69.60
38480;DHT22;62333;51.980;5.934;2024-03-08T02:42:55;7.20;69.60
38480;DHT22;62333;51.980;5.934;2024-03-08T02:45:21;7.20;69.40
38480;DHT22;62333;51.980;5.934;2024-03-08T02:47:47;7.20;69.30
38480;DHT22;62333;51.980;5.934;2024-03-08T02:50:15;7.10;69.40
38480;DHT22;62333;51.980;5.934;2024-03-08T02:52:45;7.10;70.10
38480;DHT22;62333;51.980;5.934;2024-03-08T02:55:12;7.10;69.40
38480;DHT22;62333;51.980;5.934;2024-03-08T02:57:42;7.10;69.40
38480;DHT22;62333;51.980;5.934;2024-03-08T03:00:09;7.10;69.40
38480;DHT22;62333;51.980;5.934;2024-03-08T03:02:35;7.10;69.40
38480;DHT22;62333;51.980;5.934;2024-03-08T03:05:01;7.10;69.40
38480;DHT22;62333;51.980;5.934;2024-03-08T03:07:34;7.10;69.40
38480;DHT22;62333;51.980;5.934;2024-03-08T03:10:00;7.10;69.50
38480;DHT22;62333;51.980;5.934;2024-03-08T03:12:27;7.20;69.50
38480;DHT22;62333;51.980;5.934;2024-03-08T03:14:53;7.20;69.20
38480;DHT22;62333;51.980;5.934;2024-03-08T03:17:19;7.20;69.10
38480;DHT22;62333;51.980;5.934;2024-03-08T03:19:45;7.20;69.20
38480;DHT22;62333;51.980;5.934;2024-03-08T03:22:12;7.20;69.10
38480;DHT22;62333;51.980;5.934;2024-03-08T03:24:38;7.20;69.00
38480;DHT22;62333;51.980;5.934;2024-03-08T03:27:04;7.10;69.00
38480;DHT22;62333;51.980;5.934;2024-03-08T03:29:39;7.00;69.00
38480;DHT22;62333;51.980;5.934;2024-03-08T03:32:05;6.90;69.30
38480;DHT22;62333;51.980;5.934;2024-03-08T03:34:33;6.90;69.40
38480;DHT22;62333;51.980;5.934;2024-03-08T03:37:02;7.00;69.30
38480;DHT22;62333;51.980;5.934;2024-03-08T03:39:28;6.90;69.20
38480;DHT22;62333;51.980;5.934;2024-03-08T03:42:00;6.90;69.10
38480;DHT22;62333;51.980;5.934;2024-03-08T03:44:28;6.90;69.10
38480;DHT22;62333;51.980;5.934;2024-03-08T03:46:54;6.80;69.10
38480;DHT22;62333;51.980;5.934;2024-03-08T03:49:20;6.90;69.30
38480;DHT22;62333;51.980;5.934;2024-03-08T03:51:46;6.90;69.10
38480;DHT22;62333;51.980;5.934;2024-03-08T03:54:12;6.80;69.10
38480;DHT22;62333;51.980;5.934;2024-03-08T03:56:38;6.80;69.10
38480;DHT22;62333;51.980;5.934;2024-03-08T03:59:05;6.80;69.20
38480;DHT22;62333;51.980;5.934;2024-03-08T04:01:32;6.80;69.20
38480;DHT22;62333;51.980;5.934;2024-03-08T04:03:58;6.80;69.20
38480;DHT22;62333;51.980;5.934;2024-03-08T04:06:24;6.80;69.10
38480;DHT22;62333;51.980;5.934;2024-03-08T04:08:50;6.80;69.10
38480;DHT22;62333;51.980;5.934;2024-03-08T04:11:16;6.80;69.20
38480;DHT22;62333;51.980;5.934;2024-03-08T04:13:42;6.80;69.30
38480;DHT22;62333;51.980;5.934;2024-03-08T04:16:08;6.70;69.10
38480;DHT22;62333;51.980;5.934;2024-03-08T04:18:34;6.70;69.20
38480;DHT22;62333;51.980;5.934;2024-03-08T04:21:02;6.70;69.30
38480;DHT22;62333;51.980;5.934;2024-03-08T04:23:28;6.60;69.20
38480;DHT22;62333;51.980;5.934;2024-03-08T04:25:54;6.60;69.20
38480;DHT22;62333;51.980;5.934;2024-03-08T04:28:20;6.60;69.20
38480;DHT22;62333;51.980;5.934;2024-03-08T04:30:45;6.60;69.30
38480;DHT22;62333;51.980;5.934;2024-03-08T04:33:11;6.60;69.30
38480;DHT22;62333;51.980;5.934;2024-03-08T04:35:37;6.60;69.30
38480;DHT22;62333;51.980;5.934;2024-03-08T04:38:03;6.60;69.20
38480;DHT22;62333;51.980;5.934;2024-03-08T04:40:31;6.60;69.20
38480;DHT22;62333;51.980;5.934;2024-03-08T04:42:58;6.60;69.10
38480;DHT22;62333;51.980;5.934;2024-03-08T04:45:24;6.60;69.20
38480;DHT22;62333;51.980;5.934;2024-03-08T04:47:51;6.50;69.20
38480;DHT22;62333;51.980;5.934;2024-03-08T04:50:18;6.50;69.30
38480;DHT22;62333;51.980;5.934;2024-03-08T04:52:44;6.60;69.40
38480;DHT22;62333;51.980;5.934;2024-03-08T04:55:09;6.70;69.30
38480;DHT22;62333;51.980;5.934;2024-03-08T04:57:35;6.70;69.10
38480;DHT22;62333;51.980;5.934;2024-03-08T05:00:04;6.60;69.10
38480;DHT22;62333;51.980;5.934;2024-03-08T05:02:37;6.60;69.10
38480;DHT22;62333;51.980;5.934;2024-03-08T05:05:05;6.40;69.20
38480;DHT22;62333;51.980;5.934;2024-03-08T05:07:31;6.50;69.40
38480;DHT22;62333;51.980;5.934;2024-03-08T05:09:59;6.40;69.40
38480;DHT22;62333;51.980;5.934;2024-03-08T05:12:24;6.40;69.40
38480;DHT22;62333;51.980;5.934;2024-03-08T05:14:50;6.40;69.50
38480;DHT22;62333;51.980;5.934;2024-03-08T05:17:16;6.30;69.40
38480;DHT22;62333;51.980;5.934;2024-03-08T05:19:45;6.30;69.50
38480;DHT22;62333;51.980;5.934;2024-03-08T05:22:10;6.30;69.60
38480;DHT22;62333;51.980;5.934;2024-03-08T05:24:36;6.30;69.60
38480;DHT22;62333;51.980;5.934;2024-03-08T05:27:02;6.30;69.50
38480;DHT22;62333;51.980;5.934;2024-03-08T05:29:29;6.40;69.60
38480;DHT22;62333;51.980;5.934;2024-03-08T05:31:55;6.40;69.50
38480;DHT22;62333;51.980;5.934;2024-03-08T05:34:22;6.40;69.50
38480;DHT22;62333;51.980;5.934;2024-03-08T05:36:48;6.50;69.50
38480;DHT22;62333;51.980;5.934;2024-03-08T05:39:18;6.50;69.40
38480;DHT22;62333;51.980;5.934;2024-03-08T05:41:44;6.50;69.40
38480;DHT22;62333;51.980;5.934;2024-03-08T05:44:11;6.40;69.40
38480;DHT22;62333;51.980;5.934;2024-03-08T05:46:37;6.40;69.40
38480;DHT22;62333;51.980;5.934;2024-03-08T05:49:06;6.50;69.40
38480;DHT22;62333;51.980;5.934;2024-03-08T05:51:33;6.40;69.30
38480;DHT22;62333;51.980;5.934;2024-03-08T05:54:02;6.40;69.40
38480;DHT22;62333;51.980;5.934;2024-03-08T05:56:34;6.40;69.40
38480;DHT22;62333;51.980;5.934;2024-03-08T05:58:59;6.50;69.30
38480;DHT22;62333;51.980;5.934;2024-03-08T06:01:26;6.50;69.30
38480;DHT22;62333;51.980;5.934;2024-03-08T06:03:55;6.50;69.30
38480;DHT22;62333;51.980;5.934;2024-03-08T06:06:22;6.50;69.20
38480;DHT22;62333;51.980;5.934;2024-03-08T06:08:49;6.50;69.20
38480;DHT22;62333;51.980;5.934;2024-03-08T06:11:15;6.50;69.10
38480;DHT22;62333;51.980;5.934;2024-03-08T06:13:43;6.50;69.10
38480;DHT22;62333;51.980;5.934;2024-03-08T06:16:09;6.40;69.10
38480;DHT22;62333;51.980;5.934;2024-03-08T06:18:35;6.40;69.10
38480;DHT22;62333;51.980;5.934;2024-03-08T06:21:05;6.40;69.20
38480;DHT22;62333;51.980;5.934;2024-03-08T06:23:34;6.40;69.20
38480;DHT22;62333;51.980;5.934;2024-03-08T06:26:04;6.40;69.10
38480;DHT22;62333;51.980;5.934;2024-03-08T06:28:29;6.60;69.20
38480;DHT22;62333;51.980;5.934;2024-03-08T06:30:55;7.00;68.80
38480;DHT22;62333;51.980;5.934;2024-03-08T06:33:21;7.40;68.40
38480;DHT22;62333;51.980;5.934;2024-03-08T06:35:47;7.80;67.80
38480;DHT22;62333;51.980;5.934;2024-03-08T06:38:12;8.20;67.70
38480;DHT22;62333;51.980;5.934;2024-03-08T06:40:41;8.50;68.00
38480;DHT22;62333;51.980;5.934;2024-03-08T06:43:07;8.90;69.30
38480;DHT22;62333;51.980;5.934;2024-03-08T06:45:33;9.40;70.00
38480;DHT22;62333;51.980;5.934;2024-03-08T06:47:58;9.50;69.30
38480;DHT22;62333;51.980;5.934;2024-03-08T06:50:24;9.50;69.80
38480;DHT22;62333;51.980;5.934;2024-03-08T06:52:50;9.50;70.20
38480;DHT22;62333;51.980;5.934;2024-03-08T06:55:19;9.40;70.60
38480;DHT22;62333;51.980;5.934;2024-03-08T06:57:45;9.30;70.90
38480;DHT22;62333;51.980;5.934;2024-03-08T07:00:11;9.20;70.80
38480;DHT22;62333;51.980;5.934;2024-03-08T07:02:40;9.10;70.60
38480;DHT22;62333;51.980;5.934;2024-03-08T07:05:07;9.10;70.10
38480;DHT22;62333;51.980;5.934;2024-03-08T07:07:36;9.00;69.70
38480;DHT22;62333;51.980;5.934;2024-03-08T07:10:01;9.00;68.70
38480;DHT22;62333;51.980;5.934;2024-03-08T07:12:27;8.90;68.60
38480;DHT22;62333;51.980;5.934;2024-03-08T07:14:53;8.80;68.50
38480;DHT22;62333;51.980;5.934;2024-03-08T07:17:19;8.80;68.20
38480;DHT22;62333;51.980;5.934;2024-03-08T07:19:44;8.80;68.00
38480;DHT22;62333;51.980;5.934;2024-03-08T07:22:10;8.80;67.60
38480;DHT22;62333;51.980;5.934;2024-03-08T07:24:36;8.80;67.10
38480;DHT22;62333;51.980;5.934;2024-03-08T07:27:06;8.80;66.90
38480;DHT22;62333;51.980;5.934;2024-03-08T07:29:32;8.80;66.70
38480;DHT22;62333;51.980;5.934;2024-03-08T07:31:59;8.70;66.10
38480;DHT22;62333;51.980;5.934;2024-03-08T07:34:44;8.60;65.90
38480;DHT22;62333;51.980;5.934;2024-03-08T07:37:10;8.60;66.20
38480;DHT22;62333;51.980;5.934;2024-03-08T07:39:39;8.60;66.30
38480;DHT22;62333;51.980;5.934;2024-03-08T07:42:05;8.60;65.80
38480;DHT22;62333;51.980;5.934;2024-03-08T07:44:30;8.70;65.90
38480;DHT22;62333;51.980;5.934;2024-03-08T07:46:58;8.80;65.90
38480;DHT22;62333;51.980;5.934;2024-03-08T07:49:24;9.00;65.40
38480;DHT22;62333;51.980;5.934;2024-03-08T07:51:49;9.20;64.70
38480;DHT22;62333;51.980;5.934;2024-03-08T07:54:15;9.20;64.40
38480;DHT22;62333;51.980;5.934;2024-03-08T07:56:41;9.30;63.90
38480;DHT22;62333;51.980;5.934;2024-03-08T07:59:07;9.40;63.70
38480;DHT22;62333;51.980;5.934;2024-03-08T08:01:33;9.40;62.90
38480;DHT22;62333;51.980;5.934;2024-03-08T08:03:59;9.30;63.70
38480;DHT22;62333;51.980;5.934;2024-03-08T08:06:27;9.30;63.20
38480;DHT22;62333;51.980;5.934;2024-03-08T08:08:53;9.20;62.90
38480;DHT22;62333;51.980;5.934;2024-03-08T08:11:19;9.10;63.70
38480;DHT22;62333;51.980;5.934;2024-03-08T08:13:45;9.10;64.10
38480;DHT22;62333;51.980;5.934;2024-03-08T08:16:11;9.20;64.00
38480;DHT22;62333;51.980;5.934;2024-03-08T08:18:38;9.20;63.20
38480;DHT22;62333;51.980;5.934;2024-03-08T08:21:05;9.20;62.70
38480;DHT22;62333;51.980;5.934;2024-03-08T08:23:32;9.10;62.90
38480;DHT22;62333;51.980;5.934;2024-03-08T08:25:58;9.10;63.10
38480;DHT22;62333;51.980;5.934;2024-03-08T08:28:25;9.10;62.90
38480;DHT22;62333;51.980;5.934;2024-03-08T08:30:51;9.10;62.80
38480;DHT22;62333;51.980;5.934;2024-03-08T08:33:17;9.10;63.30
38480;DHT22;62333;51.980;5.934;2024-03-08T08:35:43;9.10;63.20
38480;DHT22;62333;51.980;5.934;2024-03-08T08:38:08;9.20;63.50
38480;DHT22;62333;51.980;5.934;2024-03-08T08:40:34;9.30;63.10
38480;DHT22;62333;51.980;5.934;2024-03-08T08:43:01;9.40;62.80
38480;DHT22;62333;51.980;5.934;2024-03-08T08:45:30;9.40;62.70
38480;DHT22;62333;51.980;5.934;2024-03-08T08:47:56;9.50;62.80
38480;DHT22;62333;51.980;5.934;2024-03-08T08:50:22;9.60;62.70
38480;DHT22;62333;51.980;5.934;2024-03-08T08:52:52;9.80;62.50
38480;DHT22;62333;51.980;5.934;2024-03-08T08:55:18;9.90;61.60
38480;DHT22;62333;51.980;5.934;2024-03-08T08:57:47;9.90;61.00
38480;DHT22;62333;51.980;5.934;2024-03-08T09:00:13;9.90;60.40
38480;DHT22;62333;51.980;5.934;2024-03-08T09:02:42;9.90;60.40
38480;DHT22;62333;51.980;5.934;2024-03-08T09:05:08;9.90;60.00
38480;DHT22;62333;51.980;5.934;2024-03-08T09:07:34;9.90;60.00
38480;DHT22;62333;51.980;5.934;2024-03-08T09:10:00;10.00;60.50
38480;DHT22;62333;51.980;5.934;2024-03-08T09:12:26;10.10;60.70
38480;DHT22;62333;51.980;5.934;2024-03-08T09:14:52;10.20;60.60
38480;DHT22;62333;51.980;5.934;2024-03-08T09:17:18;10.30;60.00
38480;DHT22;62333;51.980;5.934;2024-03-08T09:19:46;10.40;59.80
38480;DHT22;62333;51.980;5.934;2024-03-08T09:22:13;10.40;60.20
38480;DHT22;62333;51.980;5.934;2024-03-08T09:24:39;10.60;60.00
38480;DHT22;62333;51.980;5.934;2024-03-08T09:27:05;10.70;59.60
38480;DHT22;62333;51.980;5.934;2024-03-08T09:29:30;10.70;59.30
38480;DHT22;62333;51.980;5.934;2024-03-08T09:31:56;10.80;59.30
38480;DHT22;62333;51.980;5.934;2024-03-08T09:34:22;10.80;58.90
38480;DHT22;62333;51.980;5.934;2024-03-08T09:36:48;10.90;58.40
38480;DHT22;62333;51.980;5.934;2024-03-08T09:39:13;11.10;58.10
38480;DHT22;62333;51.980;5.934;2024-03-08T09:41:47;11.20;57.90
38480;DHT22;62333;51.980;5.934;2024-03-08T09:44:16;11.20;57.80
38480;DHT22;62333;51.980;5.934;2024-03-08T09:46:42;11.30;57.80
38480;DHT22;62333;51.980;5.934;2024-03-08T09:49:08;11.30;57.50
38480;DHT22;62333;51.980;5.934;2024-03-08T09:51:34;11.30;57.40
38480;DHT22;62333;51.980;5.934;2024-03-08T09:54:02;11.40;57.40
38480;DHT22;62333;51.980;5.934;2024-03-08T09:56:35;11.40;57.30
38480;DHT22;62333;51.980;5.934;2024-03-08T09:59:01;11.40;57.40
38480;DHT22;62333;51.980;5.934;2024-03-08T10:01:36;11.50;57.10
38480;DHT22;62333;51.980;5.934;2024-03-08T10:04:04;11.60;57.70
38480;DHT22;62333;51.980;5.934;2024-03-08T10:06:30;11.80;57.80
38480;DHT22;62333;51.980;5.934;2024-03-08T10:08:57;11.90;57.60
38480;DHT22;62333;51.980;5.934;2024-03-08T10:11:25;12.00;57.00
38480;DHT22;62333;51.980;5.934;2024-03-08T10:13:52;12.10;56.80
38480;DHT22;62333;51.980;5.934;2024-03-08T10:16:18;12.30;56.50
38480;DHT22;62333;51.980;5.934;2024-03-08T10:18:45;12.40;56.10
38480;DHT22;62333;51.980;5.934;2024-03-08T10:21:11;12.40;56.20
38480;DHT22;62333;51.980;5.934;2024-03-08T10:23:37;12.50;55.90
38480;DHT22;62333;51.980;5.934;2024-03-08T10:26:10;12.60;55.80
38480;DHT22;62333;51.980;5.934;2024-03-08T10:28:36;12.80;55.40
38480;DHT22;62333;51.980;5.934;2024-03-08T10:31:02;12.80;55.60
38480;DHT22;62333;51.980;5.934;2024-03-08T10:33:28;13.00;55.10
38480;DHT22;62333;51.980;5.934;2024-03-08T10:35:54;13.10;55.00
38480;DHT22;62333;51.980;5.934;2024-03-08T10:38:23;13.20;54.90
38480;DHT22;62333;51.980;5.934;2024-03-08T10:40:50;13.30;54.70
38480;DHT22;62333;51.980;5.934;2024-03-08T10:43:24;13.40;54.30
38480;DHT22;62333;51.980;5.934;2024-03-08T10:48:45;13.50;53.80
38480;DHT22;62333;51.980;5.934;2024-03-08T10:51:12;13.50;53.60
38480;DHT22;62333;51.980;5.934;2024-03-08T10:53:37;13.40;53.70
38480;DHT22;62333;51.980;5.934;2024-03-08T10:56:07;13.60;53.90
38480;DHT22;62333;51.980;5.934;2024-03-08T10:58:35;13.70;53.90
38480;DHT22;62333;51.980;5.934;2024-03-08T11:01:02;13.80;52.70
38480;DHT22;62333;51.980;5.934;2024-03-08T11:06:07;13.90;52.30
38480;DHT22;62333;51.980;5.934;2024-03-08T11:08:36;13.90;52.10
38480;DHT22;62333;51.980;5.934;2024-03-08T11:11:02;13.90;51.90
38480;DHT22;62333;51.980;5.934;2024-03-08T11:13:39;13.90;51.70
38480;DHT22;62333;51.980;5.934;2024-03-08T11:18:58;13.90;51.50
38480;DHT22;62333;51.980;5.934;2024-03-08T11:21:30;14.00;51.70
38480;DHT22;62333;51.980;5.934;2024-03-08T11:24:02;14.10;51.50
38480;DHT22;62333;51.980;5.934;2024-03-08T11:26:29;14.20;50.70
38480;DHT22;62333;51.980;5.934;2024-03-08T11:32:27;14.20;50.70
38480;DHT22;62333;51.980;5.934;2024-03-08T11:34:51;14.30;50.40
38480;DHT22;62333;51.980;5.934;2024-03-08T11:37:18;14.20;50.40
38480;DHT22;62333;51.980;5.934;2024-03-08T11:42:14;14.30;50.00
38480;DHT22;62333;51.980;5.934;2024-03-08T11:44:41;14.30;50.10
38480;DHT22;62333;51.980;5.934;2024-03-08T11:47:10;14.30;50.00
38480;DHT22;62333;51.980;5.934;2024-03-08T11:49:37;14.30;50.10
38480;DHT22;62333;51.980;5.934;2024-03-08T11:52:03;14.40;50.30
38480;DHT22;62333;51.980;5.934;2024-03-08T11:54:29;14.50;50.00
38480;DHT22;62333;51.980;5.934;2024-03-08T11:56:59;14.50;49.30
38480;DHT22;62333;51.980;5.934;2024-03-08T11:59:30;14.60;49.00
38480;DHT22;62333;51.980;5.934;2024-03-08T12:02:04;14.60;48.90
38480;DHT22;62333;51.980;5.934;2024-03-08T12:04:31;14.70;48.30
38480;DHT22;62333;51.980;5.934;2024-03-08T12:06:59;14.70;48.10
38480;DHT22;62333;51.980;5.934;2024-03-08T12:09:35;14.80;48.00
38480;DHT22;62333;51.980;5.934;2024-03-08T12:12:02;14.90;48.30
38480;DHT22;62333;51.980;5.934;2024-03-08T12:14:33;15.00;47.60
38480;DHT22;62333;51.980;5.934;2024-03-08T12:16:59;15.00;47.40
38480;DHT22;62333;51.980;5.934;2024-03-08T12:19:28;14.90;47.20
38480;DHT22;62333;51.980;5.934;2024-03-08T12:21:54;14.80;48.10
38480;DHT22;62333;51.980;5.934;2024-03-08T12:24:20;14.70;47.50
38480;DHT22;62333;51.980;5.934;2024-03-08T12:26:47;14.70;47.80
38480;DHT22;62333;51.980;5.934;2024-03-08T12:29:26;14.70;47.60
38480;DHT22;62333;51.980;5.934;2024-03-08T12:31:55;14.80;47.60
38480;DHT22;62333;51.980;5.934;2024-03-08T12:34:21;14.70;47.70
38480;DHT22;62333;51.980;5.934;2024-03-08T12:36:48;14.70;47.30
38480;DHT22;62333;51.980;5.934;2024-03-08T12:39:19;14.70;47.20
38480;DHT22;62333;51.980;5.934;2024-03-08T12:41:48;14.80;47.20
38480;DHT22;62333;51.980;5.934;2024-03-08T12:44:15;14.80;47.70
38480;DHT22;62333;51.980;5.934;2024-03-08T12:46:40;14.80;47.20
38480;DHT22;62333;51.980;5.934;2024-03-08T12:49:09;14.70;47.20
38480;DHT22;62333;51.980;5.934;2024-03-08T12:51:36;14.70;47.20
38480;DHT22;62333;51.980;5.934;2024-03-08T12:54:02;14.60;47.50
38480;DHT22;62333;51.980;5.934;2024-03-08T12:56:30;14.60;47.60
38480;DHT22;62333;51.980;5.934;2024-03-08T12:58:56;14.70;47.40
38480;DHT22;62333;51.980;5.934;2024-03-08T13:01:22;14.70;47.40
38480;DHT22;62333;51.980;5.934;2024-03-08T13:03:48;14.60;47.70
38480;DHT22;62333;51.980;5.934;2024-03-08T13:06:15;14.60;47.70
38480;DHT22;62333;51.980;5.934;2024-03-08T13:08:41;14.60;47.70
38480;DHT22;62333;51.980;5.934;2024-03-08T13:11:09;14.50;47.90
38480;DHT22;62333;51.980;5.934;2024-03-08T13:13:36;14.50;48.00
38480;DHT22;62333;51.980;5.934;2024-03-08T13:16:08;14.40;47.90
38480;DHT22;62333;51.980;5.934;2024-03-08T13:18:35;14.40;47.80
38480;DHT22;62333;51.980;5.934;2024-03-08T13:21:00;14.40;48.20
38480;DHT22;62333;51.980;5.934;2024-03-08T13:23:32;14.60;48.40
38480;DHT22;62333;51.980;5.934;2024-03-08T13:25:59;14.60;48.10
38480;DHT22;62333;51.980;5.934;2024-03-08T13:28:25;14.50;48.00
38480;DHT22;62333;51.980;5.934;2024-03-08T13:30:55;14.50;48.30
38480;DHT22;62333;51.980;5.934;2024-03-08T13:33:23;14.40;48.70
38480;DHT22;62333;51.980;5.934;2024-03-08T13:35:49;14.50;48.50
38480;DHT22;62333;51.980;5.934;2024-03-08T13:38:16;14.50;48.30
38480;DHT22;62333;51.980;5.934;2024-03-08T13:40:43;14.50;48.30
38480;DHT22;62333;51.980;5.934;2024-03-08T13:43:09;14.40;48.40
38480;DHT22;62333;51.980;5.934;2024-03-08T13:45:35;14.50;48.40
38480;DHT22;62333;51.980;5.934;2024-03-08T13:48:03;14.40;48.40
38480;DHT22;62333;51.980;5.934;2024-03-08T13:50:30;14.40;48.60
38480;DHT22;62333;51.980;5.934;2024-03-08T13:52:56;14.50;48.50
38480;DHT22;62333;51.980;5.934;2024-03-08T13:55:22;14.50;48.40
38480;DHT22;62333;51.980;5.934;2024-03-08T13:57:48;14.50;48.50
38480;DHT22;62333;51.980;5.934;2024-03-08T14:00:16;14.60;48.70
38480;DHT22;62333;51.980;5.934;2024-03-08T14:02:42;14.60;48.40
38480;DHT22;62333;51.980;5.934;2024-03-08T14:05:08;14.50;48.10
38480;DHT22;62333;51.980;5.934;2024-03-08T14:07:37;14.50;48.20
38480;DHT22;62333;51.980;5.934;2024-03-08T14:10:04;14.50;48.50
38480;DHT22;62333;51.980;5.934;2024-03-08T14:12:32;14.50;48.60
38480;DHT22;62333;51.980;5.934;2024-03-08T14:14:58;14.60;48.50
38480;DHT22;62333;51.980;5.934;2024-03-08T14:17:25;14.60;48.30
38480;DHT22;62333;51.980;5.934;2024-03-08T14:19:53;14.60;48.10
38480;DHT22;62333;51.980;5.934;2024-03-08T14:22:20;14.50;48.20
38480;DHT22;62333;51.980;5.934;2024-03-08T14:24:45;14.40;48.50
38480;DHT22;62333;51.980;5.934;2024-03-08T14:27:11;14.30;48.70
38480;DHT22;62333;51.980;5.934;2024-03-08T14:29:38;14.30;48.50
38480;DHT22;62333;51.980;5.934;2024-03-08T14:32:07;14.20;48.40
38480;DHT22;62333;51.980;5.934;2024-03-08T14:34:33;14.20;48.80
38480;DHT22;62333;51.980;5.934;2024-03-08T14:37:00;14.20;49.20
38480;DHT22;62333;51.980;5.934;2024-03-08T14:39:26;14.20;49.00
38480;DHT22;62333;51.980;5.934;2024-03-08T14:41:58;14.10;49.10
38480;DHT22;62333;51.980;5.934;2024-03-08T14:44:24;14.10;49.40
38480;DHT22;62333;51.980;5.934;2024-03-08T14:46:57;14.10;49.30
38480;DHT22;62333;51.980;5.934;2024-03-08T14:49:24;14.10;49.10
38480;DHT22;62333;51.980;5.934;2024-03-08T14:51:51;14.10;49.10
38480;DHT22;62333;51.980;5.934;2024-03-08T14:54:17;14.10;49.00
38480;DHT22;62333;51.980;5.934;2024-03-08T14:56:48;14.10;49.20
38480;DHT22;62333;51.980;5.934;2024-03-08T14:59:16;14.00;49.30
38480;DHT22;62333;51.980;5.934;2024-03-08T15:01:42;13.90;49.40
38480;DHT22;62333;51.980;5.934;2024-03-08T15:04:09;13.80;49.80
38480;DHT22;62333;51.980;5.934;2024-03-08T15:06:36;13.80;50.10
38480;DHT22;62333;51.980;5.934;2024-03-08T15:09:06;13.80;50.30
38480;DHT22;62333;51.980;5.934;2024-03-08T15:11:45;13.80;50.30
38480;DHT22;62333;51.980;5.934;2024-03-08T15:14:10;13.70;50.20
38480;DHT22;62333;51.980;5.934;2024-03-08T15:16:42;13.70;50.30
38480;DHT22;62333;51.980;5.934;2024-03-08T15:19:09;13.70;50.20
38480;DHT22;62333;51.980;5.934;2024-03-08T15:21:37;13.60;50.70
38480;DHT22;62333;51.980;5.934;2024-03-08T15:24:03;13.60;50.70
38480;DHT22;62333;51.980;5.934;2024-03-08T15:26:30;13.60;50.70
38480;DHT22;62333;51.980;5.934;2024-03-08T15:28:57;13.50;50.80
38480;DHT22;62333;51.980;5.934;2024-03-08T15:31:23;13.50;50.90
38480;DHT22;62333;51.980;5.934;2024-03-08T15:33:50;13.50;50.90
38480;DHT22;62333;51.980;5.934;2024-03-08T15:36:32;13.50;50.90
38480;DHT22;62333;51.980;5.934;2024-03-08T15:38:59;13.40;50.90
38480;DHT22;62333;51.980;5.934;2024-03-08T15:41:25;13.40;51.10
38480;DHT22;62333;51.980;5.934;2024-03-08T15:43:55;13.30;50.70
38480;DHT22;62333;51.980;5.934;2024-03-08T15:46:21;13.30;50.90
38480;DHT22;62333;51.980;5.934;2024-03-08T15:48:50;13.30;51.30
38480;DHT22;62333;51.980;5.934;2024-03-08T15:51:16;13.30;51.30
38480;DHT22;62333;51.980;5.934;2024-03-08T15:53:44;13.30;51.30
38480;DHT22;62333;51.980;5.934;2024-03-08T15:56:18;13.20;51.10